sensor_id;sensor_type;location;lat;lon;timestamp;pressure;altitude;pressure_sealevel;temperature;humidity
51289;BME280;37372;52.294;5.152;2024-01-27T00:01:01;103468.69;;;2.16;79.63
51289;BME280;37372;52.294;5.152;2024-01-27T00:03:29;103472.00;;;2.25;79.33
51289;BME280;37372;52.294;5.152;2024-01-27T00:06:29;103475.81;;;2.19;79.39
51289;BME280;37372;52.294;5.152;2024-01-27T00:12:16;103486.56;;;2.23;79.48
51289;BME280;37372;52.294;5.152;2024-01-27T00:14:42;103487.34;;;2.22;79.11
51289;BME280;37372;52.294;5.152;2024-01-27T00:20:21;103488.00;;;2.20;79.29
51289;BME280;37372;52.294;5.152;2024-01-27T00:26:09;103481.53;;;2.14;79.70
51289;BME280;37372;52.294;5.152;2024-01-27T00:29:08;103482.69;;;2.18;79.14
51289;BME280;37372;52.294;5.152;2024-01-27T00:31:59;103479.72;;;2.13;79.60
51289;BME280;37372;52.294;5.152;2024-01-27T00:41:06;103483.09;;;2.12;79.81
51289;BME280;37372;52.294;5.152;2024-01-27T00:43:48;103479.25;;;2.07;80.05
51289;BME280;37372;52.294;5.152;2024-01-27T00:46:20;103487.41;;;2.02;80.03
51289;BME280;37372;52.294;5.152;2024-01-27T00:49:09;103485.13;;;1.94;79.87
51289;BME280;37372;52.294;5.152;2024-01-27T00:51:43;103486.78;;;1.94;80.36
51289;BME280;37372;52.294;5.152;2024-01-27T00:54:11;103476.69;;;1.97;80.71
51289;BME280;37372;52.294;5.152;2024-01-27T00:56:37;103488.47;;;1.93;80.37
51289;BME280;37372;52.294;5.152;2024-01-27T00:59:14;103486.78;;;1.94;81.16
51289;BME280;37372;52.294;5.152;2024-01-27T01:01:39;103482.13;;;1.90;81.04
51289;BME280;37372;52.294;5.152;2024-01-27T01:04:29;103491.97;;;1.94;80.64
51289;BME280;37372;52.294;5.152;2024-01-27T01:10:12;103489.63;;;1.97;80.10
51289;BME280;37372;52.294;5.152;2024-01-27T01:12:37;103481.22;;;1.99;79.93
51289;BME280;37372;52.294;5.152;2024-01-27T01:15:23;103478.50;;;1.98;80.33
51289;BME280;37372;52.294;5.152;2024-01-27T01:17:48;103482.25;;;1.91;80.10
51289;BME280;37372;52.294;5.152;2024-01-27T01:20:14;103483.41;;;1.95;80.14
51289;BME280;37372;52.294;5.152;2024-01-27T01:26:06;103489.53;;;1.95;80.48
51289;BME280;37372;52.294;5.152;2024-01-27T01:28:37;103494.31;;;1.91;79.97
51289;BME280;37372;52.294;5.152;2024-01-27T01:34:02;103492.25;;;1.87;81.10
51289;BME280;37372;52.294;5.152;2024-01-27T01:36:43;103499.50;;;1.80;80.32
51289;BME280;37372;52.294;5.152;2024-01-27T01:45:53;103492.53;;;1.79;80.55
51289;BME280;37372;52.294;5.152;2024-01-27T01:51:41;103495.09;;;1.90;80.44
51289;BME280;37372;52.294;5.152;2024-01-27T01:54:23;103493.81;;;1.85;80.85
51289;BME280;37372;52.294;5.152;2024-01-27T02:00:30;103495.91;;;1.78;81.51
51289;BME280;37372;52.294;5.152;2024-01-27T02:02:59;103505.47;;;1.79;81.14
51289;BME280;37372;52.294;5.152;2024-01-27T02:05:24;103490.97;;;1.81;81.16
51289;BME280;37372;52.294;5.152;2024-01-27T02:07:59;103495.91;;;1.78;81.85
51289;BME280;37372;52.294;5.152;2024-01-27T02:16:47;103513.00;;;1.76;81.46
51289;BME280;37372;52.294;5.152;2024-01-27T02:19:12;103507.28;;;1.80;82.44
51289;BME280;37372;52.294;5.152;2024-01-27T02:21:38;103506.94;;;1.76;81.75
51289;BME280;37372;52.294;5.152;2024-01-27T02:24:07;103501.75;;;1.76;81.93
51289;BME280;37372;52.294;5.152;2024-01-27T02:26:42;103506.81;;;1.74;81.53
51289;BME280;37372;52.294;5.152;2024-01-27T02:35:19;103503.53;;;1.77;81.97
51289;BME280;37372;52.294;5.152;2024-01-27T02:37:45;103513.00;;;1.76;82.19
51289;BME280;37372;52.294;5.152;2024-01-27T02:40:16;103506.66;;;1.73;82.14
51289;BME280;37372;52.294;5.152;2024-01-27T02:43:02;103506.53;;;1.71;82.28
51289;BME280;37372;52.294;5.152;2024-01-27T02:46:01;103504.47;;;1.77;82.05
51289;BME280;37372;52.294;5.152;2024-01-27T02:51:52;103498.88;;;1.73;82.15
51289;BME280;37372;52.294;5.152;2024-01-27T02:54:17;103501.22;;;1.70;82.56
51289;BME280;37372;52.294;5.152;2024-01-27T02:56:44;103503.16;;;1.72;82.32
51289;BME280;37372;52.294;5.152;2024-01-27T02:59:11;103504.47;;;1.77;82.37
51289;BME280;37372;52.294;5.152;2024-01-27T03:01:37;103500.69;;;1.74;82.31
51289;BME280;37372;52.294;5.152;2024-01-27T03:07:49;103501.09;;;1.78;81.89
51289;BME280;37372;52.294;5.152;2024-01-27T03:10:37;103514.31;;;1.71;82.37
51289;BME280;37372;52.294;5.152;2024-01-27T03:13:13;103505.25;;;1.66;82.04
51289;BME280;37372;52.294;5.152;2024-01-27T03:16:02;103501.63;;;1.64;83.06
51289;BME280;37372;52.294;5.152;2024-01-27T03:18:36;103501.25;;;1.59;82.67
51289;BME280;37372;52.294;5.152;2024-01-27T03:21:07;103496.72;;;1.57;82.40
51289;BME280;37372;52.294;5.152;2024-01-27T03:23:37;103503.97;;;1.61;82.68
51289;BME280;37372;52.294;5.152;2024-01-27T03:26:28;103505.00;;;1.63;82.53
51289;BME280;37372;52.294;5.152;2024-01-27T03:28:59;103497.47;;;1.56;82.96
51289;BME280;37372;52.294;5.152;2024-01-27T03:34:53;103503.34;;;1.53;83.28
51289;BME280;37372;52.294;5.152;2024-01-27T03:37:22;103510.06;;;1.51;82.94
51289;BME280;37372;52.294;5.152;2024-01-27T03:39:51;103506.19;;;1.56;83.38
51289;BME280;37372;52.294;5.152;2024-01-27T03:42:16;103514.59;;;1.54;83.60
51289;BME280;37372;52.294;5.152;2024-01-27T03:44:50;103519.13;;;1.56;83.37
51289;BME280;37372;52.294;5.152;2024-01-27T03:50:29;103523.66;;;1.59;82.80
51289;BME280;37372;52.294;5.152;2024-01-27T03:52:54;103511.34;;;1.56;83.35
51289;BME280;37372;52.294;5.152;2024-01-27T03:55:20;103509.41;;;1.54;82.98
51289;BME280;37372;52.294;5.152;2024-01-27T03:58:07;103510.72;;;1.48;83.01
51289;BME280;37372;52.294;5.152;2024-01-27T04:00:32;103524.06;;;1.53;82.91
51289;BME280;37372;52.294;5.152;2024-01-27T04:03:00;103522.78;;;1.48;83.33
51289;BME280;37372;52.294;5.152;2024-01-27T04:05:37;103515.91;;;1.48;83.29
51289;BME280;37372;52.294;5.152;2024-01-27T04:10:39;103517.31;;;1.55;83.46
51289;BME280;37372;52.294;5.152;2024-01-27T04:13:05;103520.19;;;1.48;82.84
51289;BME280;37372;52.294;5.152;2024-01-27T04:15:36;103521.31;;;1.52;83.13
51289;BME280;37372;52.294;5.152;2024-01-27T04:18:32;103522.78;;;1.48;83.71
51289;BME280;37372;52.294;5.152;2024-01-27T04:21:00;103527.44;;;1.52;83.09
51289;BME280;37372;52.294;5.152;2024-01-27T04:26:59;103529.13;;;1.41;83.78
51289;BME280;37372;52.294;5.152;2024-01-27T04:29:43;103525.34;;;1.38;83.43
51289;BME280;37372;52.294;5.152;2024-01-27T04:32:45;103530.41;;;1.36;83.53
51289;BME280;37372;52.294;5.152;2024-01-27T04:35:11;103533.78;;;1.35;83.31
51289;BME280;37372;52.294;5.152;2024-01-27T04:37:39;103545.66;;;1.33;83.32
51289;BME280;37372;52.294;5.152;2024-01-27T04:40:10;103541.41;;;1.33;83.77
51289;BME280;37372;52.294;5.152;2024-01-27T04:42:44;103548.25;;;1.33;84.18
51289;BME280;37372;52.294;5.152;2024-01-27T04:45:09;103540.50;;;1.33;83.71
51289;BME280;37372;52.294;5.152;2024-01-27T04:47:35;103542.81;;;1.30;83.51
51289;BME280;37372;52.294;5.152;2024-01-27T04:56:45;103533.50;;;1.22;84.23
51289;BME280;37372;52.294;5.152;2024-01-27T04:59:29;103536.09;;;1.22;83.63
51289;BME280;37372;52.294;5.152;2024-01-27T05:02:35;103536.09;;;1.22;83.72
51289;BME280;37372;52.294;5.152;2024-01-27T05:11:38;103543.88;;;1.22;84.35
51289;BME280;37372;52.294;5.152;2024-01-27T05:14:05;103534.28;;;1.21;83.96
51289;BME280;37372;52.294;5.152;2024-01-27T05:16:44;103536.59;;;1.28;84.42
51289;BME280;37372;52.294;5.152;2024-01-27T05:19:19;103538.53;;;1.30;83.96
51289;BME280;37372;52.294;5.152;2024-01-27T05:21:55;103535.31;;;1.33;84.38
51289;BME280;37372;52.294;5.152;2024-01-27T05:24:21;103526.53;;;1.31;84.57
51289;BME280;37372;52.294;5.152;2024-01-27T05:27:06;103529.59;;;1.37;83.86
51289;BME280;37372;52.294;5.152;2024-01-27T05:29:31;103526.66;;;1.43;83.68
51289;BME280;37372;52.294;5.152;2024-01-27T05:32:35;103526.38;;;1.40;83.28
51289;BME280;37372;52.294;5.152;2024-01-27T05:35:10;103519.00;;;1.34;83.42
51289;BME280;37372;52.294;5.152;2024-01-27T05:37:36;103518.63;;;1.29;83.56
51289;BME280;37372;52.294;5.152;2024-01-27T05:40:13;103508.78;;;1.36;83.72
51289;BME280;37372;52.294;5.152;2024-01-27T05:42:38;103514.34;;;1.30;83.67
51289;BME280;37372;52.294;5.152;2024-01-27T05:45:30;103521.06;;;1.38;83.58
51289;BME280;37372;52.294;5.152;2024-01-27T05:51:21;103525.34;;;1.27;83.37
51289;BME280;37372;52.294;5.152;2024-01-27T05:54:08;103514.75;;;1.24;83.57
51289;BME280;37372;52.294;5.152;2024-01-27T05:56:42;103525.75;;;1.22;83.88
51289;BME280;37372;52.294;5.152;2024-01-27T05:59:08;103523.41;;;1.14;83.83
51289;BME280;37372;52.294;5.152;2024-01-27T06:01:38;103521.75;;;1.15;83.94
51289;BME280;37372;52.294;5.152;2024-01-27T06:04:06;103530.16;;;1.12;83.83
51289;BME280;37372;52.294;5.152;2024-01-27T06:06:32;103522.38;;;1.12;84.02
51289;BME280;37372;52.294;5.152;2024-01-27T06:08:57;103524.44;;;1.16;84.06
51289;BME280;37372;52.294;5.152;2024-01-27T06:11:25;103525.22;;;1.15;83.61
51289;BME280;37372;52.294;5.152;2024-01-27T06:13:51;103515.50;;;1.13;83.97
51289;BME280;37372;52.294;5.152;2024-01-27T06:16:19;103527.81;;;1.15;83.98
51289;BME280;37372;52.294;5.152;2024-01-27T06:18:46;103529.84;;;1.09;84.33
51289;BME280;37372;52.294;5.152;2024-01-27T06:21:11;103524.69;;;1.09;84.43
51289;BME280;37372;52.294;5.152;2024-01-27T06:23:36;103529.84;;;1.09;83.68
51289;BME280;37372;52.294;5.152;2024-01-27T06:32:39;103529.59;;;1.06;84.25
51289;BME280;37372;52.294;5.152;2024-01-27T06:35:07;103530.50;;;1.07;84.20
51289;BME280;37372;52.294;5.152;2024-01-27T06:37:44;103521.59;;;1.03;84.34
51289;BME280;37372;52.294;5.152;2024-01-27T06:40:10;103524.69;;;0.99;84.14
51289;BME280;37372;52.294;5.152;2024-01-27T06:42:39;103527.94;;;0.96;84.18
51289;BME280;37372;52.294;5.152;2024-01-27T06:45:08;103527.00;;;0.96;84.54
51289;BME280;37372;52.294;5.152;2024-01-27T06:47:40;103522.59;;;0.95;84.44
51289;BME280;37372;52.294;5.152;2024-01-27T06:50:43;103520.81;;;0.94;84.54
51289;BME280;37372;52.294;5.152;2024-01-27T06:53:08;103525.81;;;0.92;84.57
51289;BME280;37372;52.294;5.152;2024-01-27T06:56:13;103524.69;;;0.89;83.84
51289;BME280;37372;52.294;5.152;2024-01-27T06:58:43;103520.78;;;0.83;84.53
51289;BME280;37372;52.294;5.152;2024-01-27T07:01:08;103524.56;;;0.87;84.46
51289;BME280;37372;52.294;5.152;2024-01-27T07:03:39;103523.25;;;0.92;84.66
51289;BME280;37372;52.294;5.152;2024-01-27T07:06:05;103534.00;;;0.97;84.55
51289;BME280;37372;52.294;5.152;2024-01-27T07:08:41;103531.53;;;0.98;85.25
51289;BME280;37372;52.294;5.152;2024-01-27T07:11:06;103531.16;;;1.04;84.61
51289;BME280;37372;52.294;5.152;2024-01-27T07:13:55;103533.72;;;1.04;84.41
51289;BME280;37372;52.294;5.152;2024-01-27T07:16:37;103535.56;;;1.15;84.19
51289;BME280;37372;52.294;5.152;2024-01-27T07:19:25;103534.00;;;1.07;84.43
51289;BME280;37372;52.294;5.152;2024-01-27T07:22:15;103535.56;;;1.05;83.96
51289;BME280;37372;52.294;5.152;2024-01-27T07:24:40;103541.38;;;1.03;84.52
51289;BME280;37372;52.294;5.152;2024-01-27T07:27:06;103546.81;;;1.06;84.66
51289;BME280;37372;52.294;5.152;2024-01-27T07:29:31;103552.91;;;1.06;84.77
51289;BME280;37372;52.294;5.152;2024-01-27T07:31:59;103551.19;;;1.07;84.48
51289;BME280;37372;52.294;5.152;2024-01-27T07:34:25;103552.38;;;1.10;84.58
51289;BME280;37372;52.294;5.152;2024-01-27T07:36:54;103563.16;;;1.15;84.65
51289;BME280;37372;52.294;5.152;2024-01-27T07:39:49;103561.88;;;1.20;84.23
51289;BME280;37372;52.294;5.152;2024-01-27T07:42:34;103555.00;;;1.21;83.99
51289;BME280;37372;52.294;5.152;2024-01-27T07:44:59;103545.81;;;1.24;84.58
51289;BME280;37372;52.294;5.152;2024-01-27T07:47:25;103552.00;;;1.26;84.31
51289;BME280;37372;52.294;5.152;2024-01-27T07:49:50;103567.03;;;1.30;84.30
51289;BME280;37372;52.294;5.152;2024-01-27T07:52:17;103563.03;;;1.34;84.35
51289;BME280;37372;52.294;5.152;2024-01-27T07:55:00;103554.72;;;1.38;84.50
51289;BME280;37372;52.294;5.152;2024-01-27T07:57:25;103559.78;;;1.37;84.37
51289;BME280;37372;52.294;5.152;2024-01-27T07:59:54;103564.69;;;1.44;84.69
51289;BME280;37372;52.294;5.152;2024-01-27T08:02:21;103576.22;;;1.47;84.17
51289;BME280;37372;52.294;5.152;2024-01-27T08:11:17;103557.94;;;1.77;83.72
51289;BME280;37372;52.294;5.152;2024-01-27T08:16:53;103569.47;;;1.80;83.84
51289;BME280;37372;52.294;5.152;2024-01-27T08:19:44;103576.19;;;1.89;83.71
51289;BME280;37372;52.294;5.152;2024-01-27T08:22:09;103573.09;;;1.93;83.80
51289;BME280;37372;52.294;5.152;2024-01-27T08:24:58;103567.63;;;2.00;83.48
51289;BME280;37372;52.294;5.152;2024-01-27T08:27:30;103565.53;;;2.06;83.45
51289;BME280;37372;52.294;5.152;2024-01-27T08:30:14;103568.63;;;2.12;83.08
51289;BME280;37372;52.294;5.152;2024-01-27T08:33:08;103572.78;;;2.21;82.86
51289;BME280;37372;52.294;5.152;2024-01-27T08:35:42;103572.97;;;2.34;83.30
51289;BME280;37372;52.294;5.152;2024-01-27T08:38:07;103579.19;;;2.36;82.75
51289;BME280;37372;52.294;5.152;2024-01-27T08:40:35;103572.56;;;2.40;82.34
51289;BME280;37372;52.294;5.152;2024-01-27T08:43:04;103569.28;;;2.53;83.05
51289;BME280;37372;52.294;5.152;2024-01-27T08:49:17;103581.94;;;2.60;81.76
51289;BME280;37372;52.294;5.152;2024-01-27T08:51:43;103573.66;;;2.64;81.83
51289;BME280;37372;52.294;5.152;2024-01-27T08:54:08;103580.88;;;2.68;81.94
51289;BME280;37372;52.294;5.152;2024-01-27T08:56:38;103572.19;;;2.67;81.89
51289;BME280;37372;52.294;5.152;2024-01-27T08:59:07;103576.25;;;2.64;81.92
51289;BME280;37372;52.294;5.152;2024-01-27T09:01:35;103582.88;;;2.60;82.10
51289;BME280;37372;52.294;5.152;2024-01-27T09:04:07;103577.78;;;2.62;81.88
51289;BME280;37372;52.294;5.152;2024-01-27T09:06:37;103579.88;;;2.56;82.06
51289;BME280;37372;52.294;5.152;2024-01-27T09:09:21;103583.03;;;2.52;81.97
51289;BME280;37372;52.294;5.152;2024-01-27T09:11:47;103580.19;;;2.48;82.18
51289;BME280;37372;52.294;5.152;2024-01-27T09:14:14;103577.84;;;2.52;82.12
51289;BME280;37372;52.294;5.152;2024-01-27T09:16:39;103579.66;;;2.53;82.22
51289;BME280;37372;52.294;5.152;2024-01-27T09:19:05;103582.47;;;2.56;82.63
51289;BME280;37372;52.294;5.152;2024-01-27T09:21:32;103588.31;;;2.53;82.15
51289;BME280;37372;52.294;5.152;2024-01-27T09:24:01;103595.44;;;2.56;82.46
51289;BME280;37372;52.294;5.152;2024-01-27T09:26:37;103592.84;;;2.56;82.27
51289;BME280;37372;52.294;5.152;2024-01-27T09:29:12;103600.31;;;2.73;81.85
51289;BME280;37372;52.294;5.152;2024-01-27T09:31:40;103590.84;;;2.74;81.78
51289;BME280;37372;52.294;5.152;2024-01-27T09:34:09;103593.38;;;2.84;81.29
51289;BME280;37372;52.294;5.152;2024-01-27T09:36:35;103600.91;;;2.81;81.36
51289;BME280;37372;52.294;5.152;2024-01-27T09:39:10;103607.13;;;2.83;81.70
51289;BME280;37372;52.294;5.152;2024-01-27T09:41:37;103610.41;;;2.80;81.40
51289;BME280;37372;52.294;5.152;2024-01-27T09:44:12;103615.66;;;2.92;80.99
51289;BME280;37372;52.294;5.152;2024-01-27T09:46:38;103626.81;;;2.91;80.89
51289;BME280;37372;52.294;5.152;2024-01-27T09:49:13;103624.84;;;2.99;80.72
51289;BME280;37372;52.294;5.152;2024-01-27T09:51:40;103632.34;;;3.06;81.37
51289;BME280;37372;52.294;5.152;2024-01-27T09:56:43;103628.75;;;3.16;80.58
51289;BME280;37372;52.294;5.152;2024-01-27T09:59:19;103637.75;;;3.09;80.58
51289;BME280;37372;52.294;5.152;2024-01-27T10:01:48;103645.13;;;3.15;80.98
51289;BME280;37372;52.294;5.152;2024-01-27T10:04:19;103642.34;;;3.24;80.61
51289;BME280;37372;52.294;5.152;2024-01-27T10:06:57;103629.91;;;3.20;81.00
51289;BME280;37372;52.294;5.152;2024-01-27T10:09:36;103641.91;;;3.29;80.37
51289;BME280;37372;52.294;5.152;2024-01-27T10:12:08;103643.84;;;3.32;80.24
51289;BME280;37372;52.294;5.152;2024-01-27T10:18:19;103654.00;;;3.51;80.02
51289;BME280;37372;52.294;5.152;2024-01-27T10:20:50;103654.28;;;3.44;79.92
51289;BME280;37372;52.294;5.152;2024-01-27T10:23:22;103658.88;;;3.58;79.86
51289;BME280;37372;52.294;5.152;2024-01-27T10:25:48;103654.03;;;3.63;79.49
51289;BME280;37372;52.294;5.152;2024-01-27T10:28:14;103654.72;;;3.60;79.40
51289;BME280;37372;52.294;5.152;2024-01-27T10:30:54;103655.94;;;3.65;79.58
51289;BME280;37372;52.294;5.152;2024-01-27T10:33:23;103657.34;;;3.72;79.00
51289;BME280;37372;52.294;5.152;2024-01-27T10:38:51;103646.72;;;3.81;79.43
51289;BME280;37372;52.294;5.152;2024-01-27T10:41:36;103647.22;;;3.87;79.16
51289;BME280;37372;52.294;5.152;2024-01-27T10:47:10;103652.91;;;4.05;77.94
51289;BME280;37372;52.294;5.152;2024-01-27T10:50:02;103640.31;;;3.99;78.24
51289;BME280;37372;52.294;5.152;2024-01-27T10:52:45;103628.34;;;4.02;78.21
51289;BME280;37372;52.294;5.152;2024-01-27T10:55:22;103632.53;;;4.11;77.99
51289;BME280;37372;52.294;5.152;2024-01-27T11:24:48;103630.41;;;4.41;76.92
51289;BME280;37372;52.294;5.152;2024-01-27T11:27:35;103633.22;;;4.44;77.05
51289;BME280;37372;52.294;5.152;2024-01-27T11:30:31;103620.91;;;4.54;76.72
51289;BME280;37372;52.294;5.152;2024-01-27T11:33:01;103630.97;;;4.61;76.00
51289;BME280;37372;52.294;5.152;2024-01-27T11:38:54;103621.44;;;4.73;75.12
51289;BME280;37372;52.294;5.152;2024-01-27T11:41:44;103623.16;;;4.73;75.19
51289;BME280;37372;52.294;5.152;2024-01-27T11:44:50;103619.41;;;4.81;75.11
51289;BME280;37372;52.294;5.152;2024-01-27T11:47:26;103619.50;;;4.82;74.87
51289;BME280;37372;52.294;5.152;2024-01-27T11:49:54;103611.88;;;4.97;74.35
51289;BME280;37372;52.294;5.152;2024-01-27T11:52:29;103610.53;;;4.91;73.83
51289;BME280;37372;52.294;5.152;2024-01-27T11:55:02;103620.16;;;4.92;73.68
51289;BME280;37372;52.294;5.152;2024-01-27T11:57:31;103608.94;;;4.93;73.78
51289;BME280;37372;52.294;5.152;2024-01-27T12:00:04;103606.94;;;4.89;73.81
51289;BME280;37372;52.294;5.152;2024-01-27T12:02:40;103605.66;;;4.95;73.60
51289;BME280;37372;52.294;5.152;2024-01-27T12:05:15;103613.69;;;4.98;73.58
51289;BME280;37372;52.294;5.152;2024-01-27T12:07:47;103603.13;;;5.09;72.51
51289;BME280;37372;52.294;5.152;2024-01-27T12:10:14;103605.19;;;5.01;72.65
51289;BME280;37372;52.294;5.152;2024-01-27T12:12:46;103602.91;;;5.06;72.39
51289;BME280;37372;52.294;5.152;2024-01-27T12:15:16;103593.41;;;5.06;72.50
51289;BME280;37372;52.294;5.152;2024-01-27T12:17:50;103586.41;;;5.19;71.93
51289;BME280;37372;52.294;5.152;2024-01-27T12:20:16;103579.59;;;5.32;71.29
51289;BME280;37372;52.294;5.152;2024-01-27T12:22:42;103581.75;;;5.26;71.61
51289;BME280;37372;52.294;5.152;2024-01-27T12:25:11;103579.69;;;5.34;70.81
51289;BME280;37372;52.294;5.152;2024-01-27T12:28:12;103582.56;;;5.25;71.48
51289;BME280;37372;52.294;5.152;2024-01-27T12:30:38;103576.34;;;5.23;71.53
51289;BME280;37372;52.294;5.152;2024-01-27T12:33:12;103576.78;;;5.29;71.02
51289;BME280;37372;52.294;5.152;2024-01-27T12:35:40;103577.66;;;5.30;70.96
51289;BME280;37372;52.294;5.152;2024-01-27T12:38:25;103581.16;;;5.30;71.28
51289;BME280;37372;52.294;5.152;2024-01-27T12:40:59;103591.28;;;5.26;71.59
51289;BME280;37372;52.294;5.152;2024-01-27T12:43:24;103589.50;;;5.38;70.71
51289;BME280;37372;52.294;5.152;2024-01-27T12:45:51;103582.28;;;5.34;70.61
51289;BME280;37372;52.294;5.152;2024-01-27T12:48:16;103579.16;;;5.26;70.97
51289;BME280;37372;52.294;5.152;2024-01-27T12:50:42;103584.69;;;5.31;70.70
51289;BME280;37372;52.294;5.152;2024-01-27T12:53:13;103586.59;;;5.33;70.55
51289;BME280;37372;52.294;5.152;2024-01-27T12:55:41;103581.94;;;5.41;70.40
51289;BME280;37372;52.294;5.152;2024-01-27T12:58:07;103586.91;;;5.38;69.94
51289;BME280;37372;52.294;5.152;2024-01-27T13:00:39;103588.38;;;5.46;69.72
51289;BME280;37372;52.294;5.152;2024-01-27T13:03:05;103582.53;;;5.37;70.06
51289;BME280;37372;52.294;5.152;2024-01-27T13:05:31;103585.38;;;5.28;70.22
51289;BME280;37372;52.294;5.152;2024-01-27T13:08:00;103584.69;;;5.31;69.84
51289;BME280;37372;52.294;5.152;2024-01-27T13:10:26;103568.31;;;5.45;69.04
51289;BME280;37372;52.294;5.152;2024-01-27T13:12:51;103566.69;;;5.47;68.79
51289;BME280;37372;52.294;5.152;2024-01-27T13:15:16;103571.69;;;5.44;69.65
51289;BME280;37372;52.294;5.152;2024-01-27T13:17:42;103571.00;;;5.47;69.39
51289;BME280;37372;52.294;5.152;2024-01-27T13:20:09;103569.00;;;5.43;69.65
51289;BME280;37372;52.294;5.152;2024-01-27T13:22:37;103576.41;;;5.50;69.56
51289;BME280;37372;52.294;5.152;2024-01-27T13:25:05;103564.47;;;5.40;70.09
51289;BME280;37372;52.294;5.152;2024-01-27T13:27:31;103562.88;;;5.42;69.62
51289;BME280;37372;52.294;5.152;2024-01-27T13:29:59;103551.34;;;5.39;69.99
51289;BME280;37372;52.294;5.152;2024-01-27T13:32:25;103564.91;;;5.46;69.67
51289;BME280;37372;52.294;5.152;2024-01-27T13:34:52;103565.31;;;5.53;69.85
51289;BME280;37372;52.294;5.152;2024-01-27T13:37:17;103559.47;;;5.43;70.18
51289;BME280;37372;52.294;5.152;2024-01-27T13:39:52;103547.47;;;5.45;69.97
51289;BME280;37372;52.294;5.152;2024-01-27T13:42:18;103551.44;;;5.40;70.37
51289;BME280;37372;52.294;5.152;2024-01-27T13:44:54;103554.25;;;5.43;70.53
51289;BME280;37372;52.294;5.152;2024-01-27T13:47:21;103564.47;;;5.40;71.00
51289;BME280;37372;52.294;5.152;2024-01-27T13:49:56;103564.03;;;5.34;71.10
51289;BME280;37372;52.294;5.152;2024-01-27T13:52:25;103563.25;;;5.35;71.63
51289;BME280;37372;52.294;5.152;2024-01-27T13:54:55;103560.66;;;5.35;71.43
51289;BME280;37372;52.294;5.152;2024-01-27T13:57:21;103559.25;;;5.40;71.38
51289;BME280;37372;52.294;5.152;2024-01-27T14:06:42;103560.09;;;5.53;71.43
51289;BME280;37372;52.294;5.152;2024-01-27T14:09:13;103563.72;;;5.55;71.03
51289;BME280;37372;52.294;5.152;2024-01-27T14:11:40;103559.69;;;5.46;71.56
51289;BME280;37372;52.294;5.152;2024-01-27T14:14:07;103555.28;;;5.45;71.39
51289;BME280;37372;52.294;5.152;2024-01-27T14:19:32;103549.97;;;5.44;71.46
51289;BME280;37372;52.294;5.152;2024-01-27T14:22:00;103543.56;;;5.52;71.15
51289;BME280;37372;52.294;5.152;2024-01-27T14:24:26;103547.56;;;5.47;71.11
51289;BME280;37372;52.294;5.152;2024-01-27T14:26:52;103550.66;;;5.41;71.70
51289;BME280;37372;52.294;5.152;2024-01-27T14:29:20;103546.53;;;5.45;71.69
51289;BME280;37372;52.294;5.152;2024-01-27T14:31:45;103536.59;;;5.39;72.04
51289;BME280;37372;52.294;5.152;2024-01-27T14:34:13;103541.91;;;5.41;72.20
51289;BME280;37372;52.294;5.152;2024-01-27T14:36:39;103543.44;;;5.37;72.12
51289;BME280;37372;52.294;5.152;2024-01-27T14:39:15;103546.03;;;5.37;71.92
51289;BME280;37372;52.294;5.152;2024-01-27T14:41:42;103551.81;;;5.33;72.40
51289;BME280;37372;52.294;5.152;2024-01-27T14:44:09;103560.31;;;5.30;72.63
51289;BME280;37372;52.294;5.152;2024-01-27T14:46:59;103560.44;;;5.32;72.71
51289;BME280;37372;52.294;5.152;2024-01-27T14:49:25;103559.53;;;5.31;72.70
51289;BME280;37372;52.294;5.152;2024-01-27T14:51:56;103566.56;;;5.32;72.57
51289;BME280;37372;52.294;5.152;2024-01-27T14:54:25;103567.94;;;5.27;72.91
51289;BME280;37372;52.294;5.152;2024-01-27T14:57:00;103567.94;;;5.27;73.09
51289;BME280;37372;52.294;5.152;2024-01-27T14:59:26;103569.16;;;5.32;72.65
51289;BME280;37372;52.294;5.152;2024-01-27T15:01:55;103560.91;;;5.26;72.92
51289;BME280;37372;52.294;5.152;2024-01-27T15:04:28;103559.59;;;5.20;73.31
51289;BME280;37372;52.294;5.152;2024-01-27T15:06:54;103569.31;;;5.22;73.25
51289;BME280;37372;52.294;5.152;2024-01-27T15:09:22;103561.84;;;5.27;72.88
51289;BME280;37372;52.294;5.152;2024-01-27T15:15:29;103570.25;;;5.23;72.73
51289;BME280;37372;52.294;5.152;2024-01-27T15:17:55;103562.19;;;5.20;72.72
51289;BME280;37372;52.294;5.152;2024-01-27T15:20:26;103568.19;;;5.19;72.68
51289;BME280;37372;52.294;5.152;2024-01-27T15:22:52;103563.38;;;5.11;73.06
51289;BME280;37372;52.294;5.152;2024-01-27T15:25:17;103563.75;;;5.04;73.35
51289;BME280;37372;52.294;5.152;2024-01-27T15:27:43;103559.91;;;4.99;73.42
51289;BME280;37372;52.294;5.152;2024-01-27T15:30:21;103557.91;;;4.95;74.06
51289;BME280;37372;52.294;5.152;2024-01-27T15:32:47;103554.56;;;4.97;73.80
51289;BME280;37372;52.294;5.152;2024-01-27T15:35:19;103561.41;;;4.95;73.61
51289;BME280;37372;52.294;5.152;2024-01-27T15:37:44;103556.88;;;4.93;73.31
51289;BME280;37372;52.294;5.152;2024-01-27T15:40:17;103557.22;;;4.86;73.73
51289;BME280;37372;52.294;5.152;2024-01-27T15:42:43;103562.00;;;4.79;74.11
51289;BME280;37372;52.294;5.152;2024-01-27T15:45:10;103561.56;;;4.73;74.45
51289;BME280;37372;52.294;5.152;2024-01-27T15:47:37;103561.13;;;4.67;74.42
51289;BME280;37372;52.294;5.152;2024-01-27T15:50:15;103559.34;;;4.66;74.63
51289;BME280;37372;52.294;5.152;2024-01-27T15:52:43;103558.88;;;4.60;74.65
51289;BME280;37372;52.294;5.152;2024-01-27T15:55:27;103563.66;;;4.54;74.69
51289;BME280;37372;52.294;5.152;2024-01-27T15:58:08;103569.13;;;4.45;74.73
51289;BME280;37372;52.294;5.152;2024-01-27T16:00:37;103562.56;;;4.38;75.45
51289;BME280;37372;52.294;5.152;2024-01-27T16:03:03;103563.09;;;4.34;75.56
51289;BME280;37372;52.294;5.152;2024-01-27T16:05:32;103554.88;;;4.28;75.74
51289;BME280;37372;52.294;5.152;2024-01-27T16:07:59;103556.22;;;4.23;76.00
51289;BME280;37372;52.294;5.152;2024-01-27T16:17:37;103552.59;;;4.09;76.62